Terminal Aerodrome Forecast
Issued by NWS Tuscon, AZ

Home | Current Version | Previous Version | Text Only | Print | Product List | Glossary On
Versions: 1 2 3 4 5 6 7 8 9 10 11 12
176
FTUS45 KTWC 281727
TAFDUG
TAF
KDUG 281727Z 2818/2918 24024G34KT P6SM BKN200
     FM282100 25030G40KT P6SM SCT100 BKN200
     FM290600 28024G34KT P6SM SKC
     FM290900 25012KT P6SM SKC
     FM291400 29016G24KT P6SM SKC=

USA.gov is the U.S. government's official web portal to all federal, state and local government web resources and services.